Time;durP1;ratioP1;P1;durP2;ratioP2;P2;SDS_P1;SDS_P2;PMS_P1;PMS_P2;Temp;Humidity;BMP_temperature;BMP_pressure;BME280_temperature;BME280_humidity;BME280_pressure;Samples;Min_cycle;Max_cycle;Signal;HPM_P1;HPM_P2
2024/01/11 00:01:20;;;;;;;95.00;55.92;;;22.60;30.10;;;;;;6200111;27;83257;-57
2024/01/11 00:04:20;;;;;;;94.43;53.70;;;22.60;30.20;;;;;;6198953;27;82990;-57
2024/01/11 00:07:21;;;;;;;93.57;53.80;;;22.60;30.30;;;;;;6198389;27;83370;-50
2024/01/11 00:10:21;;;;;;;95.43;56.05;;;22.60;30.40;;;;;;6220500;27;83192;-52
2024/01/11 00:13:22;;;;;;;99.43;56.72;;;22.50;30.30;;;;;;6221018;27;83302;-49
2024/01/11 00:16:22;;;;;;;99.13;60.10;;;22.50;30.30;;;;;;6219954;27;82837;-51
2024/01/11 00:19:23;;;;;;;104.32;59.60;;;22.40;30.30;;;;;;6224116;27;83966;-51
2024/01/11 00:22:23;;;;;;;104.10;61.17;;;22.40;30.30;;;;;;6224904;27;83348;-55
2024/01/11 00:25:24;;;;;;;112.95;65.40;;;22.40;30.30;;;;;;6219390;27;83236;-52
2024/01/11 00:28:24;;;;;;;114.18;66.30;;;22.40;30.20;;;;;;6204608;27;82960;-52
2024/01/11 00:31:25;;;;;;;116.13;69.50;;;22.30;30.10;;;;;;6221446;28;83652;-51
2024/01/11 00:34:25;;;;;;;121.95;71.13;;;22.30;30.00;;;;;;6204226;27;83053;-54
2024/01/11 00:37:26;;;;;;;118.53;68.75;;;22.30;30.00;;;;;;6201049;27;84290;-59
2024/01/11 00:40:26;;;;;;;117.88;69.05;;;22.30;30.10;;;;;;6200682;28;83503;-54
2024/01/11 00:43:27;;;;;;;114.93;68.50;;;22.30;30.00;;;;;;6208002;27;83264;-54
2024/01/11 00:46:27;;;;;;;125.25;71.07;;;22.20;30.00;;;;;;6211297;27;83025;-51
2024/01/11 00:49:28;;;;;;;123.13;73.15;;;22.20;29.90;;;;;;6206600;27;83090;-54
2024/01/11 00:52:28;;;;;;;121.93;71.57;;;22.20;30.10;;;;;;6200056;27;83195;-51
2024/01/11 00:55:29;;;;;;;122.20;72.68;;;22.20;30.50;;;;;;6199568;28;85933;-52
2024/01/11 00:58:29;;;;;;;127.32;70.97;;;22.10;30.40;;;;;;6213857;27;84151;-53
2024/01/11 01:01:30;;;;;;;128.50;74.65;;;22.10;30.30;;;;;;6201032;27;83395;-55
2024/01/11 01:04:30;;;;;;;120.75;71.35;;;22.10;30.20;;;;;;6200189;28;83054;-62
2024/01/11 01:07:31;;;;;;;125.60;72.07;;;22.10;30.40;;;;;;6202018;28;83442;-63
2024/01/11 01:10:31;;;;;;;121.95;72.93;;;22.10;30.30;;;;;;6222477;27;83847;-63
2024/01/11 01:13:32;;;;;;;123.75;72.07;;;22.10;30.40;;;;;;6200398;28;83131;-63
2024/01/11 01:16:32;;;;;;;120.32;70.13;;;22.20;30.50;;;;;;6230371;27;83535;-64
2024/01/11 01:19:33;;;;;;;122.68;69.57;;;22.10;30.60;;;;;;6221006;27;82878;-64
2024/01/11 01:22:33;;;;;;;123.30;70.10;;;22.10;30.70;;;;;;6201050;27;82856;-59
2024/01/11 01:25:34;;;;;;;122.35;68.90;;;22.00;30.70;;;;;;6198860;27;84172;-59
2024/01/11 01:28:34;;;;;;;117.78;68.72;;;22.10;31.00;;;;;;6202695;27;84620;-59
2024/01/11 01:31:37;;;;;;;125.22;68.97;;;22.00;30.90;;;;;;6208810;27;82914;-60
2024/01/11 01:34:37;;;;;;;115.97;69.18;;;22.00;31.00;;;;;;6201808;27;83692;-59
2024/01/11 01:37:38;;;;;;;117.55;68.75;;;22.00;30.80;;;;;;6208606;28;83758;-58
2024/01/11 01:40:38;;;;;;;114.07;65.43;;;22.00;30.90;;;;;;6210601;27;83153;-53
2024/01/11 01:43:39;;;;;;;116.93;64.93;;;22.00;31.10;;;;;;6222917;27;84169;-52
2024/01/11 01:46:39;;;;;;;107.53;63.58;;;22.00;31.20;;;;;;6202556;27;82932;-53
2024/01/11 01:49:40;;;;;;;112.88;62.88;;;22.00;31.60;;;;;;6212119;27;82752;-53
2024/01/11 01:52:40;;;;;;;115.43;64.78;;;22.00;31.20;;;;;;6207970;27;83504;-49
2024/01/11 01:55:41;;;;;;;112.18;63.47;;;22.00;31.30;;;;;;6210113;28;83074;-51
2024/01/11 01:58:41;;;;;;;110.80;62.20;;;22.00;31.30;;;;;;6220667;27;83873;-52
2024/01/11 02:01:42;;;;;;;101.57;59.15;;;22.00;31.60;;;;;;6210084;27;83047;-49
2024/01/11 02:04:42;;;;;;;102.85;59.30;;;21.90;31.60;;;;;;6198121;27;83986;-49
2024/01/11 02:07:43;;;;;;;100.75;58.45;;;22.00;31.60;;;;;;6199213;27;83715;-53
2024/01/11 02:10:44;;;;;;;101.90;57.05;;;22.00;31.80;;;;;;6205588;27;83284;-50
2024/01/11 02:13:44;;;;;;;95.15;55.38;;;21.90;31.40;;;;;;6216361;27;83653;-52
2024/01/11 02:16:45;;;;;;;91.30;53.50;;;21.90;32.00;;;;;;6222198;27;83028;-48
2024/01/11 02:19:45;;;;;;;94.95;51.78;;;21.90;31.90;;;;;;6223884;27;83825;-54
2024/01/11 02:22:46;;;;;;;92.60;51.55;;;21.90;32.00;;;;;;6222757;27;85068;-50
2024/01/11 02:25:46;;;;;;;88.40;50.40;;;21.90;32.10;;;;;;6212101;27;84621;-49
2024/01/11 02:28:47;;;;;;;87.75;49.88;;;21.90;31.80;;;;;;6198367;27;83167;-49
2024/01/11 02:31:47;;;;;;;88.07;48.67;;;21.90;32.30;;;;;;6209423;28;82992;-52
2024/01/11 02:34:48;;;;;;;85.28;47.97;;;21.90;32.10;;;;;;6198273;27;84848;-52
2024/01/11 02:37:48;;;;;;;78.25;46.15;;;21.90;32.10;;;;;;6198222;27;83348;-52
2024/01/11 02:40:49;;;;;;;78.97;43.75;;;21.90;32.30;;;;;;6198192;27;84118;-52
2024/01/11 02:43:49;;;;;;;75.95;44.28;;;21.90;32.30;;;;;;6211106;27;83688;-53
2024/01/11 02:46:50;;;;;;;80.88;44.65;;;21.80;32.30;;;;;;6201493;27;88395;-53
2024/01/11 02:49:50;;;;;;;81.13;45.15;;;21.80;32.20;;;;;;6221035;27;82995;-54
2024/01/11 02:52:51;;;;;;;79.60;44.95;;;21.80;32.30;;;;;;6222724;27;83752;-54
2024/01/11 02:55:51;;;;;;;76.28;43.60;;;21.80;32.10;;;;;;6221795;27;82903;-51
2024/01/11 02:58:52;;;;;;;77.95;43.88;;;21.80;32.10;;;;;;6221162;27;84063;-54
2024/01/11 03:01:52;;;;;;;73.13;42.45;;;21.80;32.20;;;;;;6201553;27;82919;-51
2024/01/11 03:04:53;;;;;;;82.95;46.25;;;21.80;32.40;;;;;;6202773;28;83120;-52
2024/01/11 03:07:53;;;;;;;80.03;44.40;;;21.80;32.20;;;;;;6206185;27;84240;-50
2024/01/11 03:10:54;;;;;;;82.32;45.72;;;21.80;32.00;;;;;;6198615;27;83363;-49
2024/01/11 03:13:55;;;;;;;83.20;45.85;;;21.80;32.40;;;;;;6198273;28;83526;-51
2024/01/11 03:16:55;;;;;;;79.15;44.13;;;21.80;32.60;;;;;;6198282;27;84307;-50
2024/01/11 03:19:56;;;;;;;85.53;45.40;;;21.80;32.40;;;;;;6212351;27;84397;-48
2024/01/11 03:22:57;;;;;;;84.13;45.30;;;21.80;32.50;;;;;;6212411;27;83878;-50
2024/01/11 03:25:57;;;;;;;80.45;44.25;;;21.80;32.50;;;;;;6196905;27;83256;-49
2024/01/11 03:28:58;;;;;;;85.60;44.83;;;21.80;32.90;;;;;;6211059;27;83241;-54
2024/01/11 03:31:58;;;;;;;81.30;44.10;;;21.80;32.60;;;;;;6210367;27;82964;-49
2024/01/11 03:34:58;;;;;;;81.90;44.30;;;21.80;32.60;;;;;;6208216;27;83500;-50
2024/01/11 03:37:59;;;;;;;78.88;42.78;;;21.80;32.60;;;;;;6206572;27;83052;-51
2024/01/11 03:41:00;;;;;;;82.88;46.63;;;21.80;32.70;;;;;;6209486;27;83644;-51
2024/01/11 03:44:00;;;;;;;76.55;42.28;;;21.80;32.70;;;;;;6206490;27;85233;-51
2024/01/11 03:47:01;;;;;;;82.05;44.38;;;21.70;32.70;;;;;;6212908;27;83404;-49
2024/01/11 03:50:01;;;;;;;75.72;41.83;;;21.80;33.50;;;;;;6221080;27;84046;-50
2024/01/11 03:53:03;;;;;;;83.22;42.97;;;21.70;32.70;;;;;;6223307;27;83049;-48
2024/01/11 03:56:03;;;;;;;76.45;41.80;;;21.70;32.80;;;;;;6225741;27;83578;-48
2024/01/11 03:59:03;;;;;;;78.15;42.38;;;21.70;32.50;;;;;;6225172;27;83038;-50
2024/01/11 04:02:04;;;;;;;73.43;40.08;;;21.80;33.20;;;;;;6220898;27;82982;-48
2024/01/11 04:05:04;;;;;;;82.00;42.60;;;21.90;32.70;;;;;;6214882;27;85592;-50
2024/01/11 04:08:05;;;;;;;75.47;42.15;;;21.90;32.70;;;;;;6214522;27;85725;-48
2024/01/11 04:11:05;;;;;;;77.25;42.20;;;22.00;32.50;;;;;;6213692;27;83661;-49
2024/01/11 04:14:06;;;;;;;79.75;42.97;;;22.10;32.30;;;;;;6221540;27;85585;-51
2024/01/11 04:17:06;;;;;;;81.60;44.65;;;22.10;32.10;;;;;;6222876;27;83560;-47
2024/01/11 04:20:08;;;;;;;83.68;44.60;;;22.20;32.00;;;;;;6206098;27;83575;-47
2024/01/11 04:23:08;;;;;;;82.90;44.25;;;22.20;31.90;;;;;;6214881;27;83329;-51
2024/01/11 04:26:09;;;;;;;86.28;46.00;;;22.30;32.00;;;;;;6223789;27;83674;-51
2024/01/11 04:29:09;;;;;;;89.70;45.72;;;22.30;31.90;;;;;;6209224;27;83504;-50
2024/01/11 04:32:10;;;;;;;87.90;46.17;;;22.40;32.10;;;;;;6208565;27;84079;-52
2024/01/11 04:35:10;;;;;;;86.47;48.35;;;22.40;31.80;;;;;;6211691;27;83079;-52
2024/01/11 04:38:11;;;;;;;91.70;48.38;;;22.50;31.50;;;;;;6223583;27;83462;-55
2024/01/11 04:41:11;;;;;;;91.63;49.15;;;22.50;31.20;;;;;;6217101;27;83105;-54
2024/01/11 04:44:12;;;;;;;89.50;48.53;;;22.50;30.90;;;;;;6206788;27;83569;-61
2024/01/11 04:47:12;;;;;;;90.00;50.70;;;22.60;30.80;;;;;;6211092;28;84195;-60
2024/01/11 04:50:13;;;;;;;96.88;51.45;;;22.60;30.60;;;;;;6216073;27;83642;-60
2024/01/11 04:53:13;;;;;;;89.35;49.35;;;22.60;30.80;;;;;;6223047;27;85218;-59
2024/01/11 04:56:14;;;;;;;96.30;51.60;;;22.60;31.20;;;;;;6215978;27;83593;-60
2024/01/11 04:59:14;;;;;;;91.18;48.55;;;22.60;31.60;;;;;;6223589;27;83344;-60
2024/01/11 05:02:15;;;;;;;90.97;51.17;;;22.70;31.90;;;;;;6220927;27;83125;-54
2024/01/11 05:05:15;;;;;;;86.03;47.58;;;22.70;32.20;;;;;;6214227;28;82831;-49
2024/01/11 05:08:16;;;;;;;87.13;47.03;;;22.70;32.70;;;;;;6221440;27;84435;-48
2024/01/11 05:11:17;;;;;;;86.72;46.78;;;22.70;32.70;;;;;;6221826;27;83259;-54
2024/01/11 05:14:17;;;;;;;85.45;46.30;;;22.70;32.80;;;;;;6218979;27;83214;-50
2024/01/11 05:17:18;;;;;;;82.03;46.35;;;22.70;32.60;;;;;;6215344;27;83334;-51
2024/01/11 05:20:18;;;;;;;80.13;44.20;;;22.80;32.70;;;;;;6218101;27;83483;-59
2024/01/11 05:23:19;;;;;;;78.25;43.95;;;22.80;33.30;;;;;;6215356;27;84092;-59
2024/01/11 05:26:19;;;;;;;73.65;42.15;;;22.80;33.20;;;;;;6215103;28;90469;-57
2024/01/11 05:29:20;;;;;;;74.78;39.55;;;22.80;33.20;;;;;;6217882;27;83046;-55
2024/01/11 05:32:20;;;;;;;74.55;39.83;;;22.80;33.20;;;;;;6212015;27;82866;-56
2024/01/11 05:35:21;;;;;;;72.68;37.58;;;22.80;33.50;;;;;;6212482;27;83877;-54
2024/01/11 05:38:22;;;;;;;69.32;35.97;;;22.80;33.40;;;;;;6205250;27;82723;-53
2024/01/11 05:41:22;;;;;;;64.05;34.92;;;22.90;33.50;;;;;;6212330;27;84094;-57
2024/01/11 05:44:23;;;;;;;63.30;33.90;;;22.80;33.00;;;;;;6209781;27;84298;-57
2024/01/11 05:47:24;;;;;;;62.10;33.25;;;22.80;33.20;;;;;;6215475;28;84138;-57
2024/01/11 05:50:24;;;;;;;54.05;31.30;;;22.80;33.10;;;;;;6198843;28;83592;-56
2024/01/11 05:53:27;;;;;;;54.30;30.13;;;22.80;33.30;;;;;;6196247;27;84394;-57
2024/01/11 05:56:27;;;;;;;54.28;30.75;;;22.80;33.40;;;;;;6198235;27;83842;-64
2024/01/11 05:59:28;;;;;;;52.72;28.90;;;22.80;33.30;;;;;;6223600;27;84342;-69
2024/01/11 06:02:28;;;;;;;50.97;28.25;;;22.80;33.50;;;;;;6221185;27;82767;-66
2024/01/11 06:05:29;;;;;;;54.03;27.65;;;22.80;33.40;;;;;;6221969;27;83792;-66
2024/01/11 06:08:30;;;;;;;51.65;30.10;;;22.80;33.20;;;;;;6220459;28;84897;-66
2024/01/11 06:11:30;;;;;;;54.28;30.45;;;22.70;33.30;;;;;;6216089;27;83197;-65
2024/01/11 06:14:31;;;;;;;53.10;27.42;;;22.70;33.30;;;;;;6211222;27;83195;-59
2024/01/11 06:17:31;;;;;;;50.65;28.73;;;22.70;33.70;;;;;;6206950;27;83726;-60
2024/01/11 06:20:32;;;;;;;48.47;27.60;;;22.70;33.60;;;;;;6212811;27;83555;-59
2024/01/11 06:23:32;;;;;;;50.60;26.40;;;22.60;33.50;;;;;;6202417;28;84053;-59
2024/01/11 06:26:33;;;;;;;47.00;26.42;;;22.60;33.70;;;;;;6223172;27;85443;-58
2024/01/11 06:29:33;;;;;;;50.65;27.63;;;22.60;33.90;;;;;;6223144;27;84428;-59
2024/01/11 06:32:34;;;;;;;48.20;27.70;;;22.50;34.10;;;;;;6221052;28;85542;-56
2024/01/11 06:35:34;;;;;;;49.65;28.20;;;22.50;34.30;;;;;;6223369;27;82969;-58
2024/01/11 06:38:35;;;;;;;49.67;27.90;;;22.50;33.60;;;;;;6221543;27;83177;-57
2024/01/11 06:41:36;;;;;;;47.72;27.85;;;22.40;34.00;;;;;;6221597;27;83595;-54
2024/01/11 06:44:36;;;;;;;54.83;31.23;;;22.40;33.80;;;;;;6221829;27;86246;-57
2024/01/11 06:47:37;;;;;;;53.75;29.40;;;22.40;33.80;;;;;;6222476;27;82940;-58
2024/01/11 06:50:37;;;;;;;52.50;29.13;;;22.30;33.70;;;;;;6213955;27;83911;-57
2024/01/11 06:53:38;;;;;;;53.25;30.60;;;22.30;33.40;;;;;;6217005;27;83821;-63
2024/01/11 06:56:38;;;;;;;57.10;32.05;;;22.30;33.30;;;;;;6221790;28;83506;-64
2024/01/11 06:59:39;;;;;;;52.75;30.60;;;22.30;33.00;;;;;;6219378;27;83181;-64
2024/01/11 07:02:42;;;;;;;56.17;30.55;;;22.20;32.90;;;;;;6219319;27;88152;-65
2024/01/11 07:05:43;;;;;;;57.88;30.88;;;22.20;32.90;;;;;;6219056;27;83321;-67
2024/01/11 07:08:43;;;;;;;54.05;30.40;;;22.20;32.70;;;;;;6207212;28;83573;-67
2024/01/11 07:11:44;;;;;;;58.22;29.35;;;22.20;32.50;;;;;;6217266;27;83451;-59
2024/01/11 07:14:44;;;;;;;44.67;26.17;;;22.10;32.30;;;;;;6218757;27;85623;-59
2024/01/11 07:17:45;;;;;;;43.80;25.23;;;22.20;32.50;;;;;;6219071;27;83004;-59
2024/01/11 07:20:46;;;;;;;48.10;27.40;;;22.10;32.30;;;;;;6222222;27;83781;-59
2024/01/11 07:23:46;;;;;;;50.30;26.65;;;22.10;32.10;;;;;;6221006;27;84270;-59
2024/01/11 07:26:47;;;;;;;46.95;26.13;;;22.10;32.10;;;;;;6222189;27;84107;-59
2024/01/11 07:29:47;;;;;;;43.17;25.13;;;22.10;31.90;;;;;;6224606;27;82856;-59
2024/01/11 07:32:48;;;;;;;44.05;25.52;;;22.20;31.80;;;;;;6225570;27;83455;-58
2024/01/11 07:35:48;;;;;;;42.45;23.95;;;22.20;31.80;;;;;;6227105;27;83159;-58
2024/01/11 07:38:49;;;;;;;42.70;23.77;;;22.20;31.70;;;;;;6225201;27;83702;-59
2024/01/11 07:41:49;;;;;;;43.60;24.92;;;22.20;31.60;;;;;;6225109;27;84899;-59
2024/01/11 07:44:50;;;;;;;43.95;24.35;;;22.20;31.60;;;;;;6225516;27;83942;-59
2024/01/11 07:47:50;;;;;;;42.15;25.02;;;22.20;31.50;;;;;;6226460;27;89014;-58
2024/01/11 07:50:51;;;;;;;42.67;24.25;;;22.20;31.40;;;;;;6202274;27;83724;-59
2024/01/11 07:53:51;;;;;;;45.08;26.15;;;22.20;31.30;;;;;;6202771;27;83558;-58
2024/01/11 07:56:52;;;;;;;48.00;25.45;;;22.30;31.30;;;;;;6202680;27;83314;-58
2024/01/11 07:59:52;;;;;;;46.17;26.83;;;22.30;31.30;;;;;;6202834;27;83080;-59
2024/01/11 08:02:54;;;;;;;43.78;25.23;;;22.30;31.30;;;;;;6206063;27;83656;-59
2024/01/11 08:05:54;;;;;;;45.95;26.40;;;22.40;31.40;;;;;;6202990;27;84214;-59
2024/01/11 08:08:55;;;;;;;45.30;25.52;;;22.40;31.40;;;;;;6200156;27;83656;-59
2024/01/11 08:11:55;;;;;;;45.40;25.23;;;22.40;31.40;;;;;;6218838;27;85915;-60
2024/01/11 08:14:56;;;;;;;45.17;23.95;;;22.30;31.30;;;;;;6210255;28;83153;-60
2024/01/11 08:17:57;;;;;;;45.80;25.05;;;22.30;31.70;;;;;;6209626;27;85637;-60
2024/01/11 08:20:58;;;;;;;47.45;26.80;;;22.40;31.70;;;;;;6215909;27;83901;-61
2024/01/11 08:23:59;;;;;;;45.80;25.77;;;22.40;31.60;;;;;;6203247;27;84132;-60
2024/01/11 08:26:59;;;;;;;44.20;25.77;;;22.40;31.60;;;;;;6207463;28;85618;-60
2024/01/11 08:30:00;;;;;;;49.05;27.75;;;22.40;31.90;;;;;;6207463;27;83020;-61
2024/01/11 08:33:00;;;;;;;48.85;27.20;;;22.40;31.90;;;;;;6211482;27;83859;-56
2024/01/11 08:36:03;;;;;;;48.10;27.27;;;22.40;31.40;;;;;;6203742;27;83277;-57
2024/01/11 08:39:07;;;;;;;42.92;24.90;;;22.40;31.60;;;;;;6199544;27;83279;-56
2024/01/11 08:42:07;;;;;;;46.63;23.48;;;22.50;32.10;;;;;;6211249;27;82821;-58
2024/01/11 08:45:08;;;;;;;40.00;23.65;;;22.50;31.90;;;;;;6204550;27;83423;-57
2024/01/11 08:48:09;;;;;;;40.53;23.60;;;22.50;31.80;;;;;;6216169;27;83050;-58
2024/01/11 08:51:11;;;;;;;37.67;22.63;;;22.60;31.90;;;;;;6211297;27;84147;-58
2024/01/11 08:54:12;;;;;;;34.75;20.27;;;22.60;32.00;;;;;;6218485;27;88748;-56
2024/01/11 08:57:12;;;;;;;36.22;21.13;;;22.70;32.20;;;;;;6210679;27;83936;-56
2024/01/11 09:00:17;;;;;;;35.17;19.85;;;22.70;32.20;;;;;;6208273;28;83312;-51
2024/01/11 09:03:17;;;;;;;32.50;19.13;;;22.70;32.30;;;;;;6217525;27;87119;-47
2024/01/11 09:06:18;;;;;;;39.03;19.58;;;22.70;32.30;;;;;;6221788;27;83395;-48
2024/01/11 09:09:18;;;;;;;36.30;20.52;;;22.70;32.30;;;;;;6223923;27;83284;-51
2024/01/11 09:12:20;;;;;;;32.70;18.63;;;22.80;32.40;;;;;;6223731;27;83524;-50
2024/01/11 09:15:20;;;;;;;29.23;16.90;;;22.80;32.40;;;;;;6218867;27;83113;-49
2024/01/11 09:18:21;;;;;;;29.38;15.77;;;22.80;33.30;;;;;;6215154;27;84349;-63
2024/01/11 09:21:21;;;;;;;30.85;18.38;;;22.80;32.90;;;;;;6209598;27;83497;-63
2024/01/11 09:24:22;;;;;;;30.63;17.95;;;22.80;33.00;;;;;;6210771;27;83883;-62
2024/01/11 09:27:22;;;;;;;29.98;17.80;;;22.80;33.00;;;;;;6207321;27;84258;-63
2024/01/11 09:30:23;;;;;;;33.13;19.15;;;22.80;33.00;;;;;;6204346;27;83111;-64
2024/01/11 09:33:23;;;;;;;30.20;17.17;;;22.80;33.60;;;;;;6206072;27;83272;-66
2024/01/11 09:36:23;;;;;;;33.78;17.13;;;22.80;33.10;;;;;;6213709;27;83087;-65
2024/01/11 09:39:25;;;;;;;33.33;18.20;;;22.80;33.10;;;;;;6217256;27;83781;-65
2024/01/11 09:42:26;;;;;;;28.98;17.05;;;22.80;33.10;;;;;;6205022;27;83131;-66
2024/01/11 09:45:27;;;;;;;30.17;18.08;;;22.80;33.10;;;;;;6212975;27;83580;-62
2024/01/11 09:48:27;;;;;;;31.00;18.27;;;22.80;33.10;;;;;;6215073;27;83147;-61
2024/01/11 09:51:28;;;;;;;31.80;17.23;;;22.80;33.10;;;;;;6218128;27;83165;-60
2024/01/11 09:54:29;;;;;;;32.58;17.17;;;22.90;33.50;;;;;;6211236;28;83558;-58
2024/01/11 09:57:29;;;;;;;32.42;18.15;;;22.80;33.40;;;;;;6208628;27;83286;-49
2024/01/11 10:00:30;;;;;;;32.25;17.40;;;22.90;34.00;;;;;;6210239;27;87689;-53
2024/01/11 10:03:30;;;;;;;29.25;16.83;;;22.90;34.40;;;;;;6205712;27;83262;-56
2024/01/11 10:06:31;;;;;;;32.17;18.08;;;22.90;35.70;;;;;;6213217;27;83525;-54
2024/01/11 10:09:31;;;;;;;25.85;15.73;;;22.90;36.20;;;;;;6217338;27;84723;-57
2024/01/11 10:12:32;;;;;;;30.02;15.68;;;22.90;36.80;;;;;;6206155;27;83290;-55
2024/01/11 10:15:32;;;;;;;34.47;16.92;;;22.90;36.80;;;;;;6203088;28;83686;-57
2024/01/11 10:18:33;;;;;;;27.02;15.10;;;22.90;37.10;;;;;;6203487;27;82894;-56
2024/01/11 10:21:33;;;;;;;26.55;15.40;;;23.00;37.50;;;;;;6208528;27;86568;-57
2024/01/11 10:24:35;;;;;;;25.02;14.98;;;23.00;37.50;;;;;;6199988;28;83634;-56
2024/01/11 10:27:35;;;;;;;25.35;14.23;;;23.00;37.70;;;;;;6199005;28;84288;-55
2024/01/11 10:30:36;;;;;;;23.23;14.32;;;22.90;37.60;;;;;;6220666;27;83729;-56
2024/01/11 10:33:37;;;;;;;25.20;14.63;;;23.00;37.80;;;;;;6220604;27;83096;-62
2024/01/11 10:36:37;;;;;;;24.65;13.77;;;22.90;37.80;;;;;;6223359;27;83570;-62
2024/01/11 10:39:38;;;;;;;25.58;13.45;;;23.00;37.80;;;;;;6219423;27;83247;-63
2024/01/11 10:42:38;;;;;;;25.15;14.35;;;22.90;38.50;;;;;;6217917;27;85508;-62
2024/01/11 10:45:39;;;;;;;25.30;13.43;;;23.00;38.00;;;;;;6223214;27;83170;-65
2024/01/11 10:48:39;;;;;;;23.70;13.52;;;22.90;37.80;;;;;;6214498;28;84043;-61
2024/01/11 10:51:40;;;;;;;23.30;12.90;;;22.90;37.80;;;;;;6211699;27;83138;-52
2024/01/11 10:54:41;;;;;;;22.10;12.90;;;22.90;38.10;;;;;;6217322;27;83072;-53
2024/01/11 10:57:41;;;;;;;21.73;12.43;;;22.90;38.10;;;;;;6211024;27;83003;-51
2024/01/11 11:00:42;;;;;;;20.33;11.35;;;22.90;38.20;;;;;;6221949;27;83270;-56
2024/01/11 11:03:42;;;;;;;21.05;11.65;;;22.90;38.10;;;;;;6213629;27;84747;-52
2024/01/11 11:06:43;;;;;;;19.83;11.38;;;22.90;38.60;;;;;;6212142;28;83126;-55
2024/01/11 11:09:45;;;;;;;18.20;11.52;;;22.90;38.40;;;;;;6205376;27;82924;-52
2024/01/11 11:12:49;;;;;;;16.08;9.68;;;22.90;38.30;;;;;;6206210;27;83193;-53
2024/01/11 11:15:49;;;;;;;17.27;10.48;;;22.90;38.20;;;;;;6208212;27;83061;-55
2024/01/11 11:18:49;;;;;;;17.02;10.07;;;22.90;38.20;;;;;;6206669;27;83806;-55
2024/01/11 11:21:51;;;;;;;17.98;9.90;;;22.90;38.30;;;;;;6205566;28;85217;-56
2024/01/11 11:24:51;;;;;;;16.40;8.32;;;22.90;38.20;;;;;;6201486;27;83495;-56
2024/01/11 11:27:52;;;;;;;16.23;8.32;;;22.90;38.30;;;;;;6210305;27;80593;-54
2024/01/11 11:30:52;;;;;;;16.88;8.57;;;22.90;38.30;;;;;;6211953;27;80989;-54
2024/01/11 11:33:52;;;;;;;14.93;8.50;;;22.90;38.50;;;;;;6217533;27;80741;-54
2024/01/11 11:36:55;;;;;;;13.82;7.85;;;22.90;38.60;;;;;;6212997;27;80449;-57
2024/01/11 11:39:56;;;;;;;14.73;8.38;;;22.90;38.80;;;;;;6208546;27;81747;-54
2024/01/11 11:42:56;;;;;;;11.70;7.40;;;22.90;38.70;;;;;;6214875;27;80569;-53
2024/01/11 11:45:57;;;;;;;12.48;7.53;;;22.80;38.50;;;;;;6204271;28;80452;-54
2024/01/11 11:48:57;;;;;;;12.55;7.68;;;22.90;38.60;;;;;;6210355;27;81242;-57
2024/01/11 11:51:58;;;;;;;14.82;7.80;;;22.90;38.40;;;;;;6219061;27;80240;-55
2024/01/11 11:54:58;;;;;;;12.40;7.05;;;22.80;38.60;;;;;;6224499;27;82985;-54
2024/01/11 11:57:59;;;;;;;14.07;7.47;;;22.80;38.70;;;;;;6225965;27;80788;-53
2024/01/11 12:00:59;;;;;;;11.35;7.00;;;22.90;38.50;;;;;;6217619;27;81439;-55
2024/01/11 12:04:02;;;;;;;11.43;7.28;;;22.80;38.70;;;;;;6212036;27;80779;-55
2024/01/11 12:07:03;;;;;;;11.23;6.82;;;22.90;38.50;;;;;;6200438;27;80425;-51
2024/01/11 12:10:03;;;;;;;13.55;7.13;;;22.90;38.40;;;;;;6207290;28;80429;-51
2024/01/11 12:13:04;;;;;;;11.52;6.80;;;22.90;38.40;;;;;;6202083;28;82254;-51
2024/01/11 12:16:04;;;;;;;10.77;6.97;;;22.90;38.50;;;;;;6220525;28;81482;-53
2024/01/11 12:19:05;;;;;;;11.30;6.43;;;22.80;38.50;;;;;;6213953;27;80803;-54
2024/01/11 12:22:05;;;;;;;12.02;6.93;;;22.80;38.30;;;;;;6227910;27;81269;-51
2024/01/11 12:25:06;;;;;;;11.70;6.43;;;22.90;38.70;;;;;;6225074;27;80517;-54
2024/01/11 12:28:06;;;;;;;11.93;7.05;;;22.80;38.40;;;;;;6226183;27;82104;-58
2024/01/11 12:31:07;;;;;;;11.82;6.40;;;22.80;38.30;;;;;;6225713;27;80597;-54
2024/01/11 12:34:07;;;;;;;10.65;6.60;;;22.80;38.40;;;;;;6228833;27;80849;-53
2024/01/11 12:37:08;;;;;;;13.75;7.43;;;22.80;38.30;;;;;;6229174;27;80553;-56
2024/01/11 12:40:10;;;;;;;12.95;7.65;;;22.80;38.10;;;;;;6224687;27;83088;-54
2024/01/11 12:43:10;;;;;;;13.93;7.00;;;22.80;38.20;;;;;;6224922;27;80793;-54
2024/01/11 12:46:11;;;;;;;11.68;6.35;;;22.80;38.10;;;;;;6216180;27;80830;-53
2024/01/11 12:49:12;;;;;;;9.98;6.60;;;22.80;38.40;;;;;;6226858;27;80770;-53
2024/01/11 12:52:12;;;;;;;13.07;7.05;;;22.80;38.30;;;;;;6213839;27;80350;-54
2024/01/11 12:55:13;;;;;;;12.68;6.57;;;22.80;38.30;;;;;;6218050;27;81751;-56
2024/01/11 12:58:15;;;;;;;12.63;7.00;;;22.80;39.00;;;;;;6220129;27;82091;-54
2024/01/11 13:01:15;;;;;;;14.98;6.78;;;22.80;38.10;;;;;;6213720;27;83346;-53
2024/01/11 13:04:16;;;;;;;11.57;6.82;;;22.80;38.60;;;;;;6219264;27;80405;-56
2024/01/11 14:11:58;;;;;;;12.50;7.30;;;22.90;38.10;;;;;;6256157;27;81647;-68
2024/01/11 14:15:00;;;;;;;14.00;8.23;;;22.80;38.00;;;;;;6264326;27;80871;-63
2024/01/11 14:18:00;;;;;;;16.80;8.23;;;22.80;38.20;;;;;;6260747;27;81051;-63
2024/01/11 14:21:01;;;;;;;19.05;8.57;;;22.80;38.10;;;;;;6273412;27;80926;-63
2024/01/11 14:24:01;;;;;;;16.50;8.35;;;22.80;39.00;;;;;;6274883;27;81844;-63
2024/01/11 14:27:02;;;;;;;17.23;8.55;;;22.90;38.10;;;;;;6265379;27;80481;-63
2024/01/11 14:30:05;;;;;;;15.63;9.07;;;22.90;38.10;;;;;;6251584;27;81378;-64
2024/01/11 14:33:06;;;;;;;17.23;9.27;;;22.90;38.00;;;;;;6257159;27;80515;-64
2024/01/11 14:36:06;;;;;;;18.85;9.50;;;22.90;38.10;;;;;;6260583;27;80803;-65
2024/01/11 14:39:07;;;;;;;19.58;9.68;;;22.90;38.80;;;;;;6251553;27;80410;-63
2024/01/11 14:42:09;;;;;;;16.23;9.48;;;22.90;38.30;;;;;;6270686;27;80806;-64
2024/01/11 14:45:09;;;;;;;15.93;9.80;;;22.90;38.40;;;;;;6257909;27;81145;-62
2024/01/11 14:48:11;;;;;;;19.08;10.38;;;22.90;38.40;;;;;;6267337;27;81616;-63
2024/01/11 14:51:12;;;;;;;18.83;10.32;;;22.90;37.90;;;;;;6251125;27;83127;-63
2024/01/11 14:54:13;;;;;;;18.60;10.65;;;22.90;37.70;;;;;;6248768;28;83287;-63
2024/01/11 14:57:13;;;;;;;20.17;11.20;;;22.90;37.70;;;;;;6244183;27;84585;-62
2024/01/11 15:00:13;;;;;;;18.05;10.88;;;22.90;37.60;;;;;;6263449;27;83004;-61
2024/01/11 15:03:14;;;;;;;21.15;11.68;;;22.90;37.60;;;;;;6257947;27;84035;-66
2024/01/11 15:06:14;;;;;;;20.88;12.00;;;22.90;37.40;;;;;;6264212;27;86061;-65
2024/01/11 15:09:16;;;;;;;19.88;11.25;;;22.90;37.60;;;;;;6254854;27;83334;-55
2024/01/11 15:12:21;;;;;;;23.10;11.75;;;22.90;37.40;;;;;;6243232;27;82982;-56
2024/01/11 15:15:22;;;;;;;17.40;10.98;;;22.90;37.30;;;;;;6249094;27;82691;-51
2024/01/11 15:18:23;;;;;;;20.95;13.30;;;22.90;37.40;;;;;;6282476;27;83356;-55
2024/01/11 15:21:23;;;;;;;22.15;12.43;;;22.90;37.40;;;;;;6259942;27;83135;-55
2024/01/11 15:24:24;;;;;;;21.27;12.50;;;23.00;37.40;;;;;;6267537;27;83334;-52
2024/01/11 15:27:24;;;;;;;25.48;13.38;;;23.00;37.30;;;;;;6272707;27;83236;-62
2024/01/11 15:30:25;;;;;;;24.00;13.35;;;23.00;37.50;;;;;;6271900;27;83201;-62
2024/01/11 15:33:25;;;;;;;24.45;14.43;;;23.00;37.40;;;;;;6256618;27;83318;-61
2024/01/11 15:36:27;;;;;;;24.48;13.05;;;23.00;37.30;;;;;;6248735;27;83156;-63
2024/01/11 15:39:27;;;;;;;26.15;12.75;;;23.00;37.30;;;;;;6244401;27;83073;-63
2024/01/11 15:42:28;;;;;;;21.25;12.48;;;23.00;37.30;;;;;;6247670;27;83056;-62
2024/01/11 15:45:28;;;;;;;23.40;13.63;;;23.00;37.30;;;;;;6258733;27;83630;-60
2024/01/11 15:48:29;;;;;;;24.95;13.60;;;23.00;37.40;;;;;;6258475;27;83105;-62
2024/01/11 15:51:29;;;;;;;25.67;14.70;;;23.00;37.80;;;;;;6251305;27;86584;-60
2024/01/11 15:54:30;;;;;;;25.15;13.18;;;23.00;37.90;;;;;;6272936;27;86720;-60
2024/01/11 15:57:30;;;;;;;23.73;13.80;;;23.00;37.60;;;;;;6259612;27;83747;-61
2024/01/11 16:00:31;;;;;;;25.67;14.57;;;23.00;37.60;;;;;;6257584;27;83834;-60
2024/01/11 16:03:32;;;;;;;32.38;14.30;;;23.00;37.60;;;;;;6261606;27;86574;-56
2024/01/11 16:06:33;;;;;;;27.85;14.57;;;23.00;37.80;;;;;;6269830;27;83654;-53
2024/01/11 16:09:33;;;;;;;24.35;13.63;;;23.00;38.00;;;;;;6264840;27;84217;-56
2024/01/11 16:12:34;;;;;;;25.67;13.77;;;23.00;38.00;;;;;;6260497;27;83795;-51
2024/01/11 16:15:35;;;;;;;27.08;15.32;;;23.00;37.60;;;;;;6265872;27;83579;-55
2024/01/11 16:18:37;;;;;;;27.00;14.93;;;23.00;37.30;;;;;;6263444;27;88104;-60
2024/01/11 16:21:37;;;;;;;29.00;14.43;;;23.00;37.40;;;;;;6269451;27;83361;-59